Time;durP1;ratioP1;P1;durP2;ratioP2;P2;SDS_P1;SDS_P2;PMS_P1;PMS_P2;Temp;Humidity;BMP_temperature;BMP_pressure;BME280_temperature;BME280_humidity;BME280_pressure;Samples;Min_cycle;Max_cycle;Signal;HPM_P1;HPM_P2
2022/05/14 00:00:40;;;;;;;19.42;10.07;;;19.40;53.50;;;;;;5012173;28;92673;-65
2022/05/14 00:03:06;;;;;;;17.80;9.75;;;19.40;53.50;;;;;;5010910;28;93283;-65
2022/05/14 00:05:31;;;;;;;16.75;9.10;;;19.40;53.50;;;;;;5011354;28;92455;-66
2022/05/14 00:07:57;;;;;;;19.00;9.02;;;19.40;53.50;;;;;;5010355;28;95324;-66
2022/05/14 00:10:26;;;;;;;16.42;8.82;;;19.40;53.50;;;;;;5011178;28;95068;-65
2022/05/14 00:13:04;;;;;;;18.95;9.20;;;19.40;53.50;;;;;;4993648;28;93147;-65
2022/05/14 00:15:41;;;;;;;16.02;8.93;;;19.40;53.50;;;;;;5011291;28;92833;-65
2022/05/14 00:18:09;;;;;;;14.98;8.18;;;19.40;53.50;;;;;;5011096;28;93942;-65
2022/05/14 00:20:36;;;;;;;18.85;9.10;;;19.40;53.50;;;;;;4993626;28;93464;-65
2022/05/14 00:23:03;;;;;;;18.30;9.30;;;19.40;53.60;;;;;;5011407;28;93140;-65
2022/05/14 00:25:29;;;;;;;13.85;7.72;;;19.40;53.50;;;;;;5009420;28;92774;-65
2022/05/14 00:27:55;;;;;;;17.17;8.43;;;19.40;53.50;;;;;;5011065;28;92950;-65
2022/05/14 00:30:24;;;;;;;16.17;8.50;;;19.40;53.50;;;;;;5011600;28;92989;-65
2022/05/14 00:32:51;;;;;;;16.88;8.30;;;19.40;53.50;;;;;;4992189;28;94962;-65
2022/05/14 00:35:17;;;;;;;16.02;8.38;;;19.40;53.50;;;;;;5011055;28;92693;-66
2022/05/14 00:37:43;;;;;;;16.80;8.77;;;19.40;53.50;;;;;;5010982;28;94271;-66
2022/05/14 00:40:25;;;;;;;14.85;8.05;;;19.40;53.50;;;;;;5011166;28;93225;-65
2022/05/14 00:42:52;;;;;;;15.52;7.97;;;19.40;53.50;;;;;;4992872;28;93164;-66
2022/05/14 00:45:18;;;;;;;14.75;7.60;;;19.40;53.60;;;;;;5010871;28;92564;-65
2022/05/14 00:47:46;;;;;;;17.15;7.97;;;19.40;53.60;;;;;;4992515;28;94456;-65
2022/05/14 00:50:36;;;;;;;13.80;8.27;;;19.40;53.60;;;;;;5011061;28;92635;-65
2022/05/14 00:53:07;;;;;;;14.40;8.00;;;19.40;53.50;;;;;;4994327;28;92533;-65
2022/05/14 00:55:34;;;;;;;14.40;7.60;;;19.40;53.60;;;;;;5011258;28;92741;-64
2022/05/14 00:58:01;;;;;;;15.45;7.78;;;19.40;53.60;;;;;;4974810;28;96791;-65
2022/05/14 01:00:29;;;;;;;12.82;6.97;;;19.40;53.60;;;;;;5010015;28;95216;-65
2022/05/14 01:02:54;;;;;;;14.18;7.47;;;19.40;53.60;;;;;;5011036;28;92541;-64
2022/05/14 01:05:21;;;;;;;14.75;7.43;;;19.40;53.60;;;;;;5010884;28;93179;-64
2022/05/14 01:07:51;;;;;;;12.80;7.25;;;19.40;53.60;;;;;;5010413;28;93024;-65
2022/05/14 01:10:20;;;;;;;12.52;6.65;;;19.40;53.60;;;;;;4993321;28;93103;-64
2022/05/14 01:12:50;;;;;;;14.38;7.32;;;19.40;53.50;;;;;;5011378;28;92752;-65
2022/05/14 01:15:20;;;;;;;14.43;6.60;;;19.40;53.60;;;;;;5010899;28;91764;-65
2022/05/14 01:17:46;;;;;;;12.63;6.63;;;19.40;53.60;;;;;;5011252;28;93111;-65
2022/05/14 01:20:14;;;;;;;13.75;6.78;;;19.30;53.60;;;;;;5010943;28;92724;-64
2022/05/14 01:23:01;;;;;;;12.93;6.90;;;19.30;53.70;;;;;;5010043;28;95412;-64
2022/05/14 01:28:29;;;;;;;12.95;6.82;;;19.30;53.70;;;;;;5011021;28;92946;-65
2022/05/14 01:30:58;;;;;;;15.70;7.18;;;19.30;53.80;;;;;;4991885;28;93523;-64
2022/05/14 01:33:24;;;;;;;12.40;6.60;;;19.30;53.70;;;;;;5010120;28;93139;-64
2022/05/14 01:35:50;;;;;;;11.45;6.53;;;19.30;53.70;;;;;;4991175;28;93207;-64
2022/05/14 01:38:17;;;;;;;11.32;6.68;;;19.30;53.70;;;;;;5010365;28;93476;-65
2022/05/14 01:40:43;;;;;;;12.80;6.63;;;19.30;53.70;;;;;;5010568;28;93621;-65
2022/05/14 01:43:09;;;;;;;12.63;6.00;;;19.30;53.70;;;;;;5010200;28;93073;-65
2022/05/14 01:45:34;;;;;;;12.07;6.63;;;19.30;53.70;;;;;;5010120;28;92656;-65
2022/05/14 01:48:00;;;;;;;11.75;6.47;;;19.30;53.80;;;;;;4991108;28;95991;-64
2022/05/14 01:50:26;;;;;;;12.65;6.30;;;19.30;53.70;;;;;;5009902;28;95811;-64
2022/05/14 01:52:52;;;;;;;10.85;6.00;;;19.30;53.70;;;;;;4992111;28;92429;-64
2022/05/14 01:55:17;;;;;;;11.45;6.53;;;19.30;53.70;;;;;;5010403;28;92789;-65
2022/05/14 01:57:43;;;;;;;12.35;5.57;;;19.30;54.70;;;;;;5009022;28;93394;-64
2022/05/14 02:00:11;;;;;;;10.38;5.68;;;19.30;53.70;;;;;;5010055;28;93041;-64
2022/05/14 02:02:37;;;;;;;10.93;5.75;;;19.30;53.70;;;;;;5010105;28;92575;-64
2022/05/14 02:05:03;;;;;;;9.95;5.53;;;19.30;53.80;;;;;;5010501;28;91722;-64
2022/05/14 02:07:29;;;;;;;8.77;5.43;;;19.30;53.80;;;;;;4990871;28;95701;-65
2022/05/14 02:09:56;;;;;;;10.05;5.70;;;19.30;53.80;;;;;;5009689;28;92789;-66
2022/05/14 02:12:21;;;;;;;8.90;5.38;;;19.30;53.90;;;;;;5009450;28;94796;-65
2022/05/14 02:14:47;;;;;;;10.80;6.00;;;19.30;53.80;;;;;;5009773;28;92640;-65
2022/05/14 02:17:13;;;;;;;11.30;5.70;;;19.30;53.90;;;;;;4991926;28;94167;-65
2022/05/14 02:19:39;;;;;;;8.73;5.40;;;19.30;53.80;;;;;;5010362;28;92721;-65
2022/05/14 02:22:05;;;;;;;11.65;5.22;;;19.20;53.80;;;;;;4991567;28;92536;-66
2022/05/14 02:24:32;;;;;;;10.90;5.45;;;19.20;53.80;;;;;;5010048;28;92603;-66
2022/05/14 02:26:58;;;;;;;10.07;5.57;;;19.20;53.90;;;;;;5010894;28;93798;-66
2022/05/14 02:29:24;;;;;;;11.68;5.85;;;19.30;53.90;;;;;;4995264;28;95514;-66
2022/05/14 02:31:50;;;;;;;11.18;5.40;;;19.20;53.80;;;;;;5013903;28;92984;-66
2022/05/14 02:34:16;;;;;;;9.50;5.70;;;19.20;53.90;;;;;;5013532;28;92487;-66
2022/05/14 02:36:41;;;;;;;11.38;5.38;;;19.30;53.90;;;;;;4992700;28;96579;-66
2022/05/14 02:39:07;;;;;;;9.60;5.00;;;19.30;53.90;;;;;;5013404;28;95171;-65
2022/05/14 02:41:33;;;;;;;9.73;5.10;;;19.20;53.80;;;;;;5013415;28;93336;-63
2022/05/14 02:43:58;;;;;;;9.13;4.97;;;19.20;54.80;;;;;;4995448;28;93268;-63
2022/05/14 02:46:24;;;;;;;10.43;5.47;;;19.20;53.90;;;;;;5013267;28;93717;-64
2022/05/14 02:48:50;;;;;;;11.15;5.40;;;19.20;54.00;;;;;;5012517;28;94142;-65
2022/05/14 02:51:15;;;;;;;9.45;4.65;;;19.20;53.90;;;;;;5013305;28;92491;-65
2022/05/14 02:53:41;;;;;;;8.27;4.72;;;19.20;53.90;;;;;;5013729;28;93652;-64
2022/05/14 02:56:06;;;;;;;10.68;5.65;;;19.20;53.90;;;;;;5013260;28;93192;-64
2022/05/14 03:01:16;;;;;;;9.38;4.75;;;19.20;53.90;;;;;;5012282;28;94908;-64
2022/05/14 03:03:42;;;;;;;8.23;4.30;;;19.20;54.00;;;;;;4994266;28;92651;-64
2022/05/14 03:06:08;;;;;;;11.55;5.43;;;19.20;54.00;;;;;;5012431;28;93179;-64
2022/05/14 03:08:34;;;;;;;11.52;5.20;;;19.20;54.00;;;;;;4995004;28;93423;-64
2022/05/14 03:10:59;;;;;;;8.70;4.40;;;19.20;54.00;;;;;;5012919;28;92569;-64
2022/05/14 03:13:25;;;;;;;10.77;4.93;;;19.20;54.00;;;;;;5013067;28;93068;-64
2022/05/14 03:15:51;;;;;;;8.05;4.70;;;19.20;54.00;;;;;;5012979;28;93339;-65
2022/05/14 03:18:16;;;;;;;8.73;4.80;;;19.20;54.00;;;;;;5013239;28;92768;-64
2022/05/14 03:20:42;;;;;;;8.43;4.43;;;19.10;53.90;;;;;;5012486;28;92488;-65
2022/05/14 03:23:08;;;;;;;9.70;4.75;;;19.20;54.00;;;;;;5012226;28;92577;-65
2022/05/14 03:25:34;;;;;;;10.27;4.80;;;19.20;54.00;;;;;;5011710;28;95542;-65
2022/05/14 03:27:59;;;;;;;10.35;4.78;;;19.20;54.00;;;;;;5012565;28;95185;-65
2022/05/14 03:30:25;;;;;;;8.25;4.57;;;19.20;54.00;;;;;;5012648;28;92539;-65
2022/05/14 03:32:51;;;;;;;11.70;4.40;;;19.10;54.00;;;;;;5012070;28;92727;-65
2022/05/14 03:35:16;;;;;;;11.30;4.82;;;19.20;54.00;;;;;;4994069;28;92982;-65
2022/05/14 03:37:42;;;;;;;8.90;4.47;;;19.10;54.00;;;;;;5011741;28;92937;-65
2022/05/14 03:40:09;;;;;;;7.05;4.22;;;19.20;54.10;;;;;;5012564;28;92955;-65
2022/05/14 03:42:35;;;;;;;8.95;4.38;;;19.10;54.00;;;;;;5012537;28;92253;-65
2022/05/14 03:45:01;;;;;;;8.98;4.28;;;19.20;54.00;;;;;;4994095;28;93359;-65
2022/05/14 03:47:28;;;;;;;7.88;4.63;;;19.10;53.90;;;;;;4994592;28;92975;-66
2022/05/14 03:49:54;;;;;;;7.00;4.35;;;19.10;54.00;;;;;;5010702;28;95437;-65
2022/05/14 03:52:20;;;;;;;8.32;4.47;;;19.10;54.00;;;;;;5011919;28;93137;-65
2022/05/14 03:54:46;;;;;;;8.27;4.20;;;19.20;54.10;;;;;;5019442;28;92994;-65
2022/05/14 03:57:12;;;;;;;8.35;4.35;;;19.10;53.90;;;;;;5023178;28;92869;-65
2022/05/14 03:59:37;;;;;;;9.35;4.60;;;19.20;54.10;;;;;;4994136;28;93101;-65
2022/05/14 04:02:05;;;;;;;8.35;4.30;;;19.10;54.00;;;;;;5012709;28;92436;-65
2022/05/14 04:04:31;;;;;;;8.68;3.78;;;19.10;54.00;;;;;;5011569;28;92789;-66
2022/05/14 04:06:57;;;;;;;10.07;3.92;;;19.10;53.90;;;;;;5012223;28;92719;-65
2022/05/14 04:09:23;;;;;;;7.00;3.40;;;19.10;55.00;;;;;;4994091;28;93123;-65
2022/05/14 04:11:49;;;;;;;9.70;4.35;;;19.10;54.00;;;;;;4994420;28;92718;-65
2022/05/14 04:14:14;;;;;;;9.57;4.10;;;19.10;54.00;;;;;;5010786;28;95358;-65
2022/05/14 04:16:40;;;;;;;8.90;4.07;;;19.10;54.00;;;;;;5011160;28;95026;-65
2022/05/14 04:19:05;;;;;;;6.15;3.88;;;19.10;54.00;;;;;;5012115;28;92831;-64
2022/05/14 04:21:35;;;;;;;6.22;3.80;;;19.10;54.10;;;;;;5011237;28;93037;-65
2022/05/14 04:24:01;;;;;;;7.85;3.95;;;19.10;54.10;;;;;;5011371;28;93095;-64
2022/05/14 04:26:27;;;;;;;6.45;3.67;;;19.10;54.00;;;;;;5010787;28;92684;-64
2022/05/14 04:28:52;;;;;;;7.60;4.07;;;19.10;54.00;;;;;;5011843;28;93003;-64
2022/05/14 04:31:21;;;;;;;8.30;4.20;;;19.10;54.10;;;;;;5012036;28;92311;-64
2022/05/14 04:33:46;;;;;;;8.95;4.13;;;19.10;54.10;;;;;;4993171;28;95141;-65
2022/05/14 04:36:12;;;;;;;7.35;4.00;;;19.10;54.10;;;;;;5009194;28;94979;-65
2022/05/14 04:38:38;;;;;;;8.45;4.15;;;19.10;54.10;;;;;;5010563;28;95370;-64
2022/05/14 04:41:04;;;;;;;8.18;4.07;;;19.10;54.10;;;;;;4993628;28;92495;-64
2022/05/14 04:43:31;;;;;;;6.38;3.47;;;19.10;54.10;;;;;;5011163;28;92887;-65
2022/05/14 04:45:57;;;;;;;8.30;4.05;;;19.10;54.10;;;;;;5011494;28;92479;-65
2022/05/14 04:48:22;;;;;;;8.80;3.60;;;19.10;54.10;;;;;;5011325;28;92440;-65
2022/05/14 04:50:48;;;;;;;7.95;3.58;;;19.10;54.10;;;;;;5010520;28;92458;-65
2022/05/14 04:53:14;;;;;;;7.03;3.70;;;19.10;54.00;;;;;;5011062;28;93047;-63
2022/05/14 04:55:39;;;;;;;6.32;4.00;;;19.10;54.00;;;;;;5008844;28;94753;-65
2022/05/14 04:58:08;;;;;;;7.35;3.63;;;19.10;54.10;;;;;;5011660;28;92737;-65
2022/05/14 05:00:37;;;;;;;8.18;3.90;;;19.00;54.10;;;;;;5010869;28;92513;-65
2022/05/14 05:03:19;;;;;;;6.95;3.90;;;19.10;54.10;;;;;;5010179;28;95378;-64
2022/05/14 05:05:52;;;;;;;6.40;3.60;;;19.10;54.20;;;;;;4992616;28;94274;-65
2022/05/14 05:08:18;;;;;;;7.10;3.40;;;19.10;54.10;;;;;;5010755;28;92558;-65
2022/05/14 05:10:45;;;;;;;7.68;3.42;;;19.00;54.20;;;;;;5011177;28;92458;-65
2022/05/14 05:13:13;;;;;;;7.65;3.72;;;19.00;54.20;;;;;;5009675;28;92902;-64
2022/05/14 05:15:39;;;;;;;8.32;3.55;;;19.10;54.20;;;;;;5010827;28;93044;-65
2022/05/14 05:18:06;;;;;;;9.60;4.00;;;19.10;54.20;;;;;;5011707;28;92832;-64
2022/05/14 05:20:32;;;;;;;7.82;3.80;;;19.00;54.20;;;;;;5011388;28;91786;-65
2022/05/14 05:22:58;;;;;;;7.80;3.67;;;19.10;54.20;;;;;;5010355;28;92975;-65
2022/05/14 05:25:23;;;;;;;7.88;3.63;;;19.00;55.10;;;;;;5010763;28;92691;-65
2022/05/14 05:27:49;;;;;;;7.97;3.63;;;19.00;54.20;;;;;;4991099;28;94868;-64
2022/05/14 05:30:16;;;;;;;7.28;3.70;;;19.00;54.10;;;;;;5010969;28;93027;-65
2022/05/14 05:32:41;;;;;;;7.70;3.25;;;19.00;54.20;;;;;;5009970;28;92909;-65
2022/05/14 05:35:07;;;;;;;6.43;3.42;;;19.00;54.20;;;;;;4992349;28;93989;-65
2022/05/14 05:37:33;;;;;;;7.60;3.60;;;19.00;54.20;;;;;;4992353;28;92594;-65
2022/05/14 05:39:59;;;;;;;7.80;3.53;;;19.00;54.20;;;;;;5009054;28;93317;-65
2022/05/14 05:42:24;;;;;;;7.43;3.65;;;19.00;54.20;;;;;;5009832;28;93211;-65
2022/05/14 05:44:52;;;;;;;7.95;3.60;;;19.00;54.30;;;;;;5010535;28;92613;-65
2022/05/14 05:47:18;;;;;;;6.75;3.65;;;19.00;54.20;;;;;;5009986;28;92827;-65
2022/05/14 05:49:44;;;;;;;7.50;3.72;;;19.10;54.20;;;;;;5010768;28;92934;-65
2022/05/14 05:52:11;;;;;;;8.75;3.53;;;19.10;54.20;;;;;;5008980;28;95546;-65
2022/05/14 05:57:30;;;;;;;7.88;3.45;;;19.00;54.30;;;;;;4994131;28;93071;-65
2022/05/14 05:59:56;;;;;;;8.70;3.55;;;19.00;54.30;;;;;;5010603;28;92958;-64
2022/05/14 06:02:21;;;;;;;5.93;2.78;;;19.00;54.30;;;;;;5008976;28;93004;-65
2022/05/14 06:04:47;;;;;;;7.93;3.55;;;19.00;54.30;;;;;;5009315;28;93754;-65
2022/05/14 06:07:13;;;;;;;7.53;3.40;;;19.00;54.30;;;;;;5009863;28;93031;-65
2022/05/14 06:09:39;;;;;;;7.35;3.65;;;19.00;54.30;;;;;;5009023;28;91883;-65
2022/05/14 06:12:06;;;;;;;7.32;3.53;;;19.10;54.30;;;;;;4991831;28;93192;-65
2022/05/14 06:14:32;;;;;;;6.80;3.50;;;19.00;54.30;;;;;;5009673;28;92614;-65
2022/05/14 06:16:58;;;;;;;8.35;3.55;;;19.10;54.40;;;;;;5008801;28;95005;-65
2022/05/14 06:19:23;;;;;;;7.72;3.50;;;19.00;54.30;;;;;;5010198;28;92997;-65
2022/05/14 06:21:49;;;;;;;6.70;3.10;;;19.00;54.30;;;;;;5010015;28;93257;-65
2022/05/14 06:24:15;;;;;;;6.68;3.40;;;19.10;54.40;;;;;;5009373;28;92921;-65
2022/05/14 06:26:40;;;;;;;8.02;3.80;;;19.10;54.40;;;;;;5009722;28;92947;-65
2022/05/14 06:29:06;;;;;;;7.20;3.53;;;19.10;54.30;;;;;;4992254;28;92592;-65
2022/05/14 06:31:32;;;;;;;6.30;2.92;;;19.10;54.30;;;;;;5009520;28;93185;-64
2022/05/14 06:33:59;;;;;;;7.05;3.20;;;19.10;54.40;;;;;;5010087;28;92897;-65
2022/05/14 06:36:24;;;;;;;6.05;3.15;;;19.10;54.40;;;;;;5009562;28;93314;-64
2022/05/14 06:38:50;;;;;;;8.48;3.47;;;19.10;54.40;;;;;;5009367;28;93103;-64
2022/05/14 06:41:16;;;;;;;6.65;3.13;;;19.10;54.40;;;;;;5008533;28;95363;-65
2022/05/14 06:43:42;;;;;;;5.97;3.50;;;19.10;54.40;;;;;;5009197;28;95193;-64
2022/05/14 06:46:08;;;;;;;7.03;3.20;;;19.10;54.30;;;;;;5010086;28;92543;-65
2022/05/14 06:48:34;;;;;;;7.25;3.08;;;19.20;54.30;;;;;;5009952;28;92545;-65
2022/05/14 06:51:04;;;;;;;6.93;3.35;;;19.10;54.30;;;;;;5008641;28;92908;-65
2022/05/14 06:53:32;;;;;;;5.57;3.00;;;19.10;54.30;;;;;;4990724;28;93101;-65
2022/05/14 06:55:59;;;;;;;7.88;3.35;;;19.20;54.30;;;;;;4991664;28;93281;-65
2022/05/14 06:58:32;;;;;;;8.35;3.53;;;19.20;54.30;;;;;;5009465;28;91828;-65
2022/05/14 07:00:58;;;;;;;7.65;2.97;;;19.10;54.30;;;;;;5008752;28;93106;-64
2022/05/14 07:08:53;;;;;;;7.47;3.03;;;19.20;54.40;;;;;;5009530;28;92654;-65
2022/05/14 07:11:20;;;;;;;6.35;3.10;;;19.20;54.50;;;;;;5009156;28;93081;-65
2022/05/14 07:13:46;;;;;;;10.82;4.03;;;19.20;54.40;;;;;;5011085;28;93253;-65
2022/05/14 07:16:11;;;;;;;7.03;3.35;;;19.20;54.30;;;;;;4995542;28;92760;-65
2022/05/14 07:18:37;;;;;;;6.72;3.08;;;19.20;54.30;;;;;;5014111;28;92549;-65
2022/05/14 07:21:03;;;;;;;6.50;3.03;;;19.20;54.30;;;;;;4995050;28;94090;-65
2022/05/14 07:23:29;;;;;;;7.35;3.15;;;19.30;54.30;;;;;;5012754;28;92494;-65
2022/05/14 07:26:00;;;;;;;8.63;3.50;;;19.20;54.30;;;;;;5013130;28;93012;-65
2022/05/14 07:28:26;;;;;;;5.68;3.03;;;19.20;54.40;;;;;;5012412;28;92554;-65
2022/05/14 07:30:52;;;;;;;6.20;3.10;;;19.30;54.40;;;;;;5010903;28;95448;-65
2022/05/14 07:33:18;;;;;;;5.22;2.85;;;19.20;54.30;;;;;;5011305;28;106715;-64
2022/05/14 07:35:44;;;;;;;7.60;3.60;;;19.20;54.40;;;;;;5012842;28;93341;-65
2022/05/14 07:38:09;;;;;;;7.55;3.05;;;19.20;54.30;;;;;;5012796;28;92462;-65
2022/05/14 07:40:37;;;;;;;7.47;3.35;;;19.30;54.40;;;;;;5012378;28;92685;-65
2022/05/14 07:43:15;;;;;;;7.72;3.10;;;19.20;54.30;;;;;;5012052;28;94201;-64
2022/05/14 07:45:49;;;;;;;7.22;3.20;;;19.30;54.40;;;;;;4993765;28;92877;-65
2022/05/14 07:48:27;;;;;;;7.85;3.42;;;19.30;54.30;;;;;;5011976;28;92378;-65
2022/05/14 07:50:52;;;;;;;6.97;3.13;;;19.30;54.30;;;;;;5012246;28;92976;-65
2022/05/14 07:53:18;;;;;;;7.55;3.33;;;19.30;54.40;;;;;;4993873;28;93999;-64
2022/05/14 07:55:44;;;;;;;7.05;3.08;;;19.30;54.50;;;;;;5010105;28;94928;-65
2022/05/14 07:58:10;;;;;;;8.27;3.25;;;19.30;54.40;;;;;;5011966;28;92623;-64
2022/05/14 08:00:36;;;;;;;6.72;3.20;;;19.30;54.40;;;;;;5011483;28;93337;-65
2022/05/14 08:03:03;;;;;;;7.45;3.20;;;19.30;54.40;;;;;;5011969;28;92569;-65
2022/05/14 08:05:29;;;;;;;7.60;3.03;;;19.30;54.40;;;;;;4993686;28;92889;-65
2022/05/14 08:07:55;;;;;;;8.05;3.42;;;19.30;54.40;;;;;;5011342;28;92648;-64
2022/05/14 08:10:20;;;;;;;6.97;3.15;;;19.30;54.40;;;;;;5011388;28;93153;-66
2022/05/14 08:12:51;;;;;;;8.90;3.30;;;19.30;54.30;;;;;;5011962;28;92616;-66
2022/05/14 08:15:18;;;;;;;6.88;2.90;;;19.30;54.50;;;;;;5011922;28;92615;-66
2022/05/14 08:17:45;;;;;;;10.57;3.10;;;19.30;54.70;;;;;;5011769;28;92791;-66
2022/05/14 08:20:12;;;;;;;8.35;3.17;;;19.30;55.00;;;;;;5008108;28;97022;-66
2022/05/14 08:25:23;;;;;;;6.68;2.70;;;19.40;55.40;;;;;;5011237;28;92511;-66
2022/05/14 08:27:48;;;;;;;6.65;2.63;;;19.40;56.40;;;;;;4993354;28;93197;-68
2022/05/14 08:30:15;;;;;;;7.72;2.83;;;19.40;55.50;;;;;;5011446;28;93365;-67
2022/05/14 08:32:41;;;;;;;11.65;2.80;;;19.40;55.60;;;;;;5011511;28;92599;-68
2022/05/14 08:35:07;;;;;;;8.20;3.10;;;19.50;55.70;;;;;;5011816;28;92914;-67
2022/05/14 08:37:34;;;;;;;7.05;2.80;;;19.50;55.80;;;;;;5011472;28;91750;-66
2022/05/14 08:40:09;;;;;;;6.60;2.80;;;19.50;55.90;;;;;;5011412;28;93435;-67
2022/05/14 08:42:36;;;;;;;7.88;3.00;;;19.50;56.10;;;;;;5011396;28;96108;-66
2022/05/14 08:45:03;;;;;;;6.50;2.70;;;19.60;56.20;;;;;;5010470;28;94935;-67
2022/05/14 08:47:34;;;;;;;9.05;3.25;;;19.60;56.40;;;;;;4993385;28;92550;-67
2022/05/14 08:50:01;;;;;;;6.07;2.80;;;19.60;56.50;;;;;;5011362;28;93666;-66
2022/05/14 08:52:29;;;;;;;7.05;2.95;;;19.60;56.70;;;;;;5010939;28;93295;-67
2022/05/14 08:55:00;;;;;;;6.80;2.92;;;19.60;56.80;;;;;;5012098;28;92526;-66
2022/05/14 08:57:43;;;;;;;7.65;2.92;;;19.70;57.00;;;;;;5012337;28;92555;-66
2022/05/14 09:00:10;;;;;;;5.88;2.55;;;19.60;56.90;;;;;;4993200;28;95047;-65
2022/05/14 09:02:51;;;;;;;6.82;2.92;;;19.60;56.90;;;;;;5011453;28;92518;-66
2022/05/14 09:05:21;;;;;;;10.52;3.10;;;19.60;57.00;;;;;;5011105;28;92828;-66
2022/05/14 09:07:50;;;;;;;7.53;2.97;;;19.70;57.20;;;;;;4992866;28;92567;-67
2022/05/14 09:10:25;;;;;;;6.35;2.90;;;19.60;57.20;;;;;;5010182;28;95683;-66
2022/05/14 09:12:58;;;;;;;7.65;2.80;;;19.70;57.40;;;;;;5012425;28;95059;-66
2022/05/14 09:15:31;;;;;;;;;;;19.70;57.50;;;;;;5012520;28;92859;-66
2022/05/14 09:18:11;;;;;;;5.32;2.70;;;19.60;57.20;;;;;;5016393;28;92431;-64
2022/05/14 09:20:46;;;;;;;6.60;2.85;;;19.60;57.50;;;;;;5023957;28;91821;-64
2022/05/14 09:23:22;;;;;;;10.15;3.03;;;19.70;57.70;;;;;;5013817;28;92596;-66
2022/05/14 09:25:48;;;;;;;6.97;3.00;;;19.70;57.70;;;;;;5011725;28;93015;-65
2022/05/14 09:28:30;;;;;;;7.13;2.92;;;19.70;57.70;;;;;;5012275;28;92211;-65
2022/05/14 09:30:58;;;;;;;8.87;2.47;;;19.70;57.80;;;;;;5010710;28;93209;-68
2022/05/14 09:33:34;;;;;;;8.15;2.80;;;19.70;57.90;;;;;;5014536;28;93257;-69
2022/05/14 09:36:01;;;;;;;7.30;2.80;;;19.70;57.90;;;;;;5011274;28;94866;-67
2022/05/14 09:38:28;;;;;;;8.75;2.88;;;19.70;57.60;;;;;;5011933;28;92593;-67
2022/05/14 09:41:06;;;;;;;10.32;2.85;;;19.70;57.40;;;;;;5011996;28;93611;-66
2022/05/14 09:43:36;;;;;;;11.02;2.88;;;19.70;57.30;;;;;;4992912;28;94791;-66
2022/05/14 09:46:07;;;;;;;8.07;3.25;;;19.70;57.20;;;;;;5012021;28;92444;-66
2022/05/14 09:48:47;;;;;;;7.20;2.90;;;19.70;57.10;;;;;;5011959;28;92530;-67
2022/05/14 09:51:25;;;;;;;6.63;2.55;;;19.70;57.00;;;;;;5011549;28;93125;-67
2022/05/14 09:53:52;;;;;;;9.82;2.85;;;19.70;57.00;;;;;;5012382;28;92683;-67
2022/05/14 09:56:55;;;;;;;7.55;2.78;;;19.70;57.00;;;;;;5011972;28;92541;-67
2022/05/14 09:59:55;;;;;;;4.38;2.13;;;19.70;57.00;;;;;;4929506;28;92700;-66
2022/05/14 10:02:36;;;;;;;5.70;2.88;;;19.70;57.00;;;;;;4991655;28;96640;-67
2022/05/14 10:05:05;;;;;;;7.55;2.72;;;19.70;56.80;;;;;;5010688;28;95168;-67
2022/05/14 10:07:34;;;;;;;7.80;2.97;;;19.70;56.80;;;;;;5010602;28;92777;-66
2022/05/14 10:10:18;;;;;;;8.20;2.92;;;19.70;56.60;;;;;;5011365;28;93110;-67
2022/05/14 10:12:49;;;;;;;6.88;2.80;;;19.80;56.60;;;;;;4992996;28;95099;-66
2022/05/14 10:15:27;;;;;;;7.57;2.70;;;19.70;56.50;;;;;;5011516;28;92540;-66
2022/05/14 10:18:02;;;;;;;7.88;3.20;;;19.70;56.50;;;;;;5011222;28;92987;-66
2022/05/14 10:20:27;;;;;;;7.93;3.10;;;19.70;56.40;;;;;;5011878;28;91828;-66
2022/05/14 10:26:45;;;;;;;8.13;2.70;;;19.70;56.30;;;;;;5010577;28;92977;-67
2022/05/14 10:29:21;;;;;;;7.50;2.70;;;19.70;56.20;;;;;;5010056;28;94861;-66
2022/05/14 10:32:02;;;;;;;7.38;2.90;;;19.70;56.20;;;;;;5010892;28;92586;-66
2022/05/14 10:34:38;;;;;;;8.45;3.20;;;19.70;56.20;;;;;;5010433;28;92825;-66
2022/05/14 10:37:32;;;;;;;8.38;2.67;;;19.80;56.20;;;;;;4993624;28;92791;-66
2022/05/14 10:40:20;;;;;;;7.72;2.97;;;19.80;56.00;;;;;;5009383;28;93137;-65
2022/05/14 10:42:57;;;;;;;6.00;2.47;;;19.80;56.10;;;;;;4997694;28;92818;-66
2022/05/14 10:45:30;;;;;;;6.30;3.00;;;19.80;55.90;;;;;;5010463;28;93010;-67
2022/05/14 10:48:14;;;;;;;7.20;2.80;;;19.80;55.90;;;;;;5010784;28;91764;-67
2022/05/14 10:50:40;;;;;;;7.85;2.78;;;19.80;55.80;;;;;;5013644;28;93077;-67
2022/05/14 10:53:08;;;;;;;6.32;2.67;;;19.80;55.80;;;;;;5013460;28;92883;-66
2022/05/14 10:55:54;;;;;;;7.03;2.80;;;19.80;55.70;;;;;;4994243;28;97460;-67
2022/05/14 10:58:36;;;;;;;8.82;2.90;;;19.80;55.60;;;;;;5013477;28;95131;-66
2022/05/14 11:01:06;;;;;;;7.82;2.53;;;19.80;55.70;;;;;;5012698;28;93072;-73
2022/05/14 11:03:36;;;;;;;10.15;3.00;;;19.80;55.80;;;;;;4995927;28;92619;-66
2022/05/14 11:06:01;;;;;;;7.07;2.70;;;19.80;55.70;;;;;;5013356;28;93066;-64
2022/05/14 11:08:47;;;;;;;7.40;2.80;;;19.90;55.80;;;;;;5012937;28;92679;-66
2022/05/14 11:11:31;;;;;;;64.93;40.72;;;19.90;55.70;;;;;;5011990;28;92487;-66
2022/05/14 11:14:08;;;;;;;24.95;14.52;;;20.00;56.60;;;;;;5012227;28;91873;-66
2022/05/14 11:16:40;;;;;;;23.75;11.77;;;20.00;56.80;;;;;;5012250;28;93033;-66
2022/05/14 11:19:07;;;;;;;19.50;11.15;;;20.00;56.80;;;;;;5012243;28;93306;-66
2022/05/14 11:21:37;;;;;;;21.90;11.23;;;20.10;56.80;;;;;;4991602;28;94877;-66
2022/05/14 11:24:03;;;;;;;21.27;10.98;;;20.10;56.70;;;;;;5011278;28;93444;-66
2022/05/14 11:26:30;;;;;;;22.17;10.73;;;20.10;56.90;;;;;;5012129;28;92966;-67
2022/05/14 11:29:12;;;;;;;17.65;10.07;;;20.10;56.90;;;;;;5011708;28;92838;-66
2022/05/14 11:31:48;;;;;;;18.50;9.57;;;20.20;56.70;;;;;;5011723;28;93277;-66
2022/05/14 11:34:21;;;;;;;18.08;9.93;;;20.10;56.50;;;;;;4993579;28;92542;-66
2022/05/14 11:36:51;;;;;;;;;;;20.10;56.50;;;;;;5011093;28;93106;-66
2022/05/14 11:39:22;;;;;;;17.60;9.48;;;20.10;56.30;;;;;;5013008;28;92777;-66
2022/05/14 11:41:54;;;;;;;15.38;9.32;;;20.10;56.40;;;;;;4993944;28;92574;-66
2022/05/14 11:44:33;;;;;;;17.42;9.38;;;20.10;56.30;;;;;;5012236;28;92496;-66
2022/05/14 11:47:00;;;;;;;18.55;8.80;;;20.20;56.20;;;;;;5010033;28;95852;-67
2022/05/14 11:49:35;;;;;;;17.02;9.10;;;20.10;56.20;;;;;;5012039;28;95772;-67
2022/05/14 11:52:18;;;;;;;15.30;9.02;;;20.10;56.10;;;;;;5012835;28;92933;-67
2022/05/14 11:55:08;;;;;;;17.30;8.43;;;20.10;56.10;;;;;;5012295;28;92962;-67
2022/05/14 11:57:58;;;;;;;14.63;8.60;;;20.10;56.10;;;;;;5010675;28;93098;-67
2022/05/14 12:00:30;;;;;;;15.80;7.95;;;20.10;56.10;;;;;;4992754;28;93525;-67
2022/05/14 12:03:04;;;;;;;15.17;8.33;;;20.00;56.20;;;;;;5012579;28;92502;-67
2022/05/14 12:05:33;;;;;;;13.07;8.07;;;20.00;56.10;;;;;;5012785;28;91828;-66
2022/05/14 12:08:36;;;;;;;16.20;8.68;;;20.00;56.10;;;;;;5010734;28;92890;-66
2022/05/14 12:11:08;;;;;;;13.57;7.88;;;20.00;56.00;;;;;;5012231;28;93325;-66
2022/05/14 12:13:49;;;;;;;13.87;7.67;;;20.00;56.00;;;;;;5011198;28;94856;-65
2022/05/14 12:16:15;;;;;;;13.77;7.57;;;20.00;56.00;;;;;;5012164;28;92900;-66
2022/05/14 12:18:43;;;;;;;11.50;7.22;;;20.00;56.00;;;;;;4992466;28;93561;-66
2022/05/14 12:21:09;;;;;;;13.45;7.22;;;20.00;56.00;;;;;;4993031;28;94051;-66
2022/05/14 12:23:41;;;;;;;15.32;8.20;;;20.00;55.80;;;;;;5010362;28;92626;-66
2022/05/14 12:26:28;;;;;;;15.52;7.65;;;20.10;55.90;;;;;;5011064;28;92507;-67
2022/05/14 12:29:15;;;;;;;15.18;7.35;;;20.00;55.70;;;;;;5010735;28;93080;-67
2022/05/14 12:34:36;;;;;;;13.07;7.20;;;20.00;55.70;;;;;;5012123;28;92615;-67
2022/05/14 12:37:08;;;;;;;14.23;7.10;;;20.10;55.60;;;;;;5011883;28;92453;-67
2022/05/14 12:39:34;;;;;;;12.23;7.15;;;20.10;55.60;;;;;;4990968;28;96998;-67
2022/05/14 12:42:05;;;;;;;11.35;6.80;;;20.10;55.50;;;;;;4992856;28;96144;-67
2022/05/14 12:44:53;;;;;;;12.07;6.70;;;20.10;55.40;;;;;;4993165;28;92534;-67
2022/05/14 12:47:27;;;;;;;13.25;7.30;;;20.10;55.40;;;;;;5011808;28;93270;-68
2022/05/14 12:49:53;;;;;;;15.30;7.40;;;20.10;55.40;;;;;;5010987;28;92956;-67
2022/05/14 12:52:24;;;;;;;13.55;6.70;;;20.10;56.40;;;;;;5010934;28;93802;-67
2022/05/14 12:55:09;;;;;;;11.68;6.80;;;20.10;55.30;;;;;;5010660;28;93070;-67
2022/05/14 12:57:37;;;;;;;10.75;6.72;;;20.10;55.30;;;;;;4992714;28;91824;-64
2022/05/14 13:00:05;;;;;;;12.77;6.53;;;20.10;55.30;;;;;;5010929;28;92972;-66
2022/05/14 13:02:38;;;;;;;12.93;7.20;;;20.10;55.30;;;;;;5010738;28;93030;-66
2022/05/14 13:05:13;;;;;;;12.40;7.10;;;20.10;55.30;;;;;;4992627;28;95456;-66
2022/05/14 13:07:54;;;;;;;10.25;6.47;;;20.10;55.30;;;;;;5011742;28;93114;-65
2022/05/14 13:10:23;;;;;;;10.77;6.35;;;20.10;55.20;;;;;;5009909;28;93559;-66
2022/05/14 13:12:53;;;;;;;12.50;6.63;;;20.10;55.20;;;;;;5010142;28;92711;-67
2022/05/14 13:15:29;;;;;;;10.85;6.35;;;20.10;55.20;;;;;;5010633;28;92567;-66
2022/05/14 13:17:55;;;;;;;11.77;6.68;;;20.10;55.10;;;;;;5011155;28;92983;-66